createdAt,value
2023-12-23T00:00:51.408Z,1.70
2023-12-23T00:03:43.296Z,2.70
2023-12-23T00:06:15.702Z,4.60
2023-12-23T00:08:47.629Z,4.40
2023-12-23T00:11:19.417Z,3.00
2023-12-23T00:13:51.217Z,4.40
2023-12-23T00:16:25.308Z,3.00
2023-12-23T00:18:57.260Z,2.50
2023-12-23T00:21:29.090Z,1.90
2023-12-23T00:24:00.866Z,1.80
2023-12-23T00:26:32.748Z,2.80
2023-12-23T00:29:04.773Z,3.80
2023-12-23T00:31:36.633Z,3.10
2023-12-23T00:34:08.518Z,4.60
2023-12-23T00:36:40.278Z,3.80
2023-12-23T00:39:12.125Z,3.50
2023-12-23T00:41:44.363Z,3.50
2023-12-23T00:44:16.352Z,4.20
2023-12-23T00:46:48.268Z,4.00
2023-12-23T00:49:20.286Z,3.20
2023-12-23T00:51:52.126Z,2.20
2023-12-23T00:54:24.643Z,1.80
2023-12-23T00:56:56.689Z,4.30
2023-12-23T00:59:28.480Z,1.60
2023-12-23T01:02:00.360Z,2.40
2023-12-23T01:04:32.278Z,3.20
2023-12-23T01:07:04.049Z,3.20
2023-12-23T01:09:35.838Z,1.80
2023-12-23T01:12:09.151Z,4.20
2023-12-23T01:14:41.073Z,3.10
2023-12-23T01:17:13.031Z,4.50
2023-12-23T01:19:44.991Z,3.70
2023-12-23T01:22:16.890Z,1.20
2023-12-23T01:24:48.639Z,1.80
2023-12-23T01:27:22.957Z,2.30
2023-12-23T01:29:54.835Z,2.80
2023-12-23T01:32:26.851Z,2.90
2023-12-23T01:34:58.781Z,2.50
2023-12-23T01:37:30.854Z,2.50
2023-12-23T01:40:02.658Z,3.20
2023-12-23T01:42:34.429Z,3.50
2023-12-23T01:45:07.095Z,2.90
2023-12-23T01:47:42.449Z,2.00
2023-12-23T01:50:15.215Z,2.40
2023-12-23T01:52:47.595Z,3.70
2023-12-23T01:55:19.766Z,2.40
2023-12-23T01:57:51.851Z,4.70
2023-12-23T02:00:24.280Z,3.00
2023-12-23T02:02:58.553Z,2.40
2023-12-23T02:05:30.753Z,2.40
2023-12-23T02:08:02.914Z,1.60
2023-12-23T02:10:35.038Z,3.40
2023-12-23T02:13:16.378Z,3.70
2023-12-23T02:15:51.140Z,3.40
2023-12-23T02:18:26.802Z,1.90
2023-12-23T02:21:00.383Z,3.30
2023-12-23T02:23:32.243Z,3.80
2023-12-23T02:26:06.168Z,4.10
2023-12-23T02:28:38.263Z,3.80
2023-12-23T02:31:10.879Z,3.90
2023-12-23T02:33:42.752Z,7.00
2023-12-23T02:36:14.637Z,5.70
2023-12-23T02:38:46.429Z,4.30
2023-12-23T02:41:18.574Z,4.20
2023-12-23T02:43:50.345Z,2.90
2023-12-23T02:46:23.246Z,2.70
2023-12-23T02:48:55.303Z,2.80
2023-12-23T02:51:27.087Z,4.30
2023-12-23T02:53:58.925Z,2.00
2023-12-23T02:56:32.145Z,1.70
2023-12-23T02:59:04.037Z,7.80
2023-12-23T03:01:35.814Z,2.80
2023-12-23T03:04:07.658Z,3.10
2023-12-23T03:06:39.414Z,2.50
2023-12-23T03:09:11.221Z,2.30
2023-12-23T03:11:43.071Z,1.90
2023-12-23T03:14:15.165Z,3.80
2023-12-23T03:16:47.239Z,2.10
2023-12-23T03:19:19.009Z,2.40
2023-12-23T03:21:50.882Z,4.20
2023-12-23T03:24:22.877Z,4.00
2023-12-23T03:26:54.806Z,3.40
2023-12-23T03:29:26.641Z,3.00
2023-12-23T03:31:58.481Z,1.70
2023-12-23T03:34:30.418Z,2.80
2023-12-23T03:37:02.208Z,1.80
2023-12-23T03:39:33.961Z,2.50
2023-12-23T03:42:06.239Z,1.70
2023-12-23T03:44:38.182Z,1.80
2023-12-23T03:47:10.521Z,1.60
2023-12-23T03:49:42.751Z,2.80
2023-12-23T03:52:14.644Z,1.30
2023-12-23T03:54:46.557Z,3.20
2023-12-23T03:57:18.414Z,2.60
2023-12-23T03:59:50.358Z,3.80
2023-12-23T04:02:22.121Z,1.40
2023-12-23T04:04:53.974Z,2.80
2023-12-23T04:07:26.051Z,2.40
2023-12-23T04:09:57.813Z,1.00
2023-12-23T04:12:29.766Z,1.40
2023-12-23T04:15:02.001Z,0.60
2023-12-23T04:17:33.953Z,1.00
2023-12-23T04:20:06.493Z,1.60
2023-12-23T04:22:38.608Z,1.30
2023-12-23T04:25:11.446Z,1.80
2023-12-23T04:27:43.261Z,0.90
2023-12-23T04:30:15.989Z,0.70
2023-12-23T04:32:48.610Z,0.50
2023-12-23T04:35:20.886Z,2.50
2023-12-23T04:37:52.753Z,1.30
2023-12-23T04:40:24.808Z,0.80
2023-12-23T04:42:56.584Z,1.50
2023-12-23T04:45:28.363Z,0.90
2023-12-23T04:48:00.372Z,1.20
2023-12-23T04:50:32.179Z,1.40
2023-12-23T04:53:04.058Z,0.70
2023-12-23T04:55:35.887Z,0.90
2023-12-23T04:58:11.559Z,1.20
2023-12-23T05:00:43.373Z,0.70
2023-12-23T05:03:15.156Z,0.30
2023-12-23T05:05:47.225Z,0.60
2023-12-23T05:08:19.077Z,0.50
2023-12-23T05:10:50.963Z,0.90
2023-12-23T05:13:24.432Z,1.30
2023-12-23T05:18:26.609Z,0.50
2023-12-23T05:20:58.649Z,2.20
2023-12-23T05:23:30.445Z,3.20
2023-12-23T05:26:02.303Z,2.50
2023-12-23T05:28:34.228Z,1.60
2023-12-23T05:31:06.267Z,1.10
2023-12-23T05:33:38.223Z,1.20
2023-12-23T05:36:11.522Z,1.50
2023-12-23T05:38:43.290Z,1.20
2023-12-23T05:41:15.185Z,1.30
2023-12-23T05:43:47.454Z,2.40
2023-12-23T05:46:19.358Z,1.30
2023-12-23T05:48:51.158Z,1.80
2023-12-23T05:51:23.008Z,2.50
2023-12-23T05:53:55.009Z,1.50
2023-12-23T05:56:26.854Z,1.50
2023-12-23T05:58:58.761Z,2.00
2023-12-23T06:01:30.583Z,0.80
2023-12-23T06:04:02.559Z,1.80
2023-12-23T06:06:34.423Z,1.10
2023-12-23T06:09:07.776Z,2.40
2023-12-23T06:11:42.309Z,2.40
2023-12-23T06:14:14.510Z,1.10
2023-12-23T06:16:46.429Z,1.60
2023-12-23T06:19:18.245Z,1.10
2023-12-23T06:21:50.060Z,1.10
2023-12-23T06:24:21.828Z,0.70
2023-12-23T06:26:53.668Z,2.10
2023-12-23T06:29:25.501Z,1.40
2023-12-23T06:31:58.101Z,1.10
2023-12-23T06:34:29.932Z,0.90
2023-12-23T06:37:01.706Z,2.60
2023-12-23T06:39:33.792Z,2.60
2023-12-23T06:42:05.951Z,1.50
2023-12-23T06:44:37.761Z,2.20
2023-12-23T06:47:09.906Z,3.10
2023-12-23T06:49:41.826Z,1.60
2023-12-23T06:52:13.806Z,1.50
2023-12-23T06:54:45.632Z,1.60
2023-12-23T06:57:17.507Z,2.80
2023-12-23T06:59:49.745Z,2.40
2023-12-23T07:02:21.572Z,1.40
2023-12-23T07:04:53.694Z,2.20
2023-12-23T07:07:25.870Z,2.50
2023-12-23T07:10:04.732Z,2.50
2023-12-23T07:12:39.505Z,1.90
2023-12-23T07:15:13.153Z,1.80
2023-12-23T07:17:45.166Z,2.40
2023-12-23T07:20:17.392Z,2.00
2023-12-23T07:22:49.534Z,2.60
2023-12-23T07:25:21.804Z,2.50
2023-12-23T07:27:53.568Z,1.50
2023-12-23T07:30:25.444Z,3.10
2023-12-23T07:32:57.664Z,3.30
2023-12-23T07:35:29.759Z,3.00
2023-12-23T07:38:01.588Z,2.70
2023-12-23T07:40:36.077Z,2.20
2023-12-23T07:43:08.531Z,1.60
2023-12-23T07:45:40.509Z,3.00
2023-12-23T07:48:12.778Z,0.90
2023-12-23T07:50:44.757Z,1.30
2023-12-23T07:53:16.608Z,2.90
2023-12-23T07:55:49.166Z,1.70
2023-12-23T07:58:21.083Z,3.10
2023-12-23T08:00:52.923Z,2.30
2023-12-23T08:03:24.766Z,0.70
2023-12-23T08:05:56.676Z,1.20
2023-12-23T08:08:28.657Z,1.00
2023-12-23T08:11:00.885Z,2.10
2023-12-23T08:13:33.098Z,2.50
2023-12-23T08:16:05.165Z,2.50
2023-12-23T08:18:37.096Z,1.70
2023-12-23T08:21:09.562Z,2.80
2023-12-23T08:23:41.370Z,3.70
2023-12-23T08:26:13.190Z,2.50
2023-12-23T08:28:47.012Z,2.00
2023-12-23T08:31:19.087Z,2.30
2023-12-23T08:33:50.979Z,1.90
2023-12-23T08:36:23.887Z,1.60
2023-12-23T08:38:55.881Z,3.50
2023-12-23T08:41:28.037Z,3.30
2023-12-23T08:43:59.866Z,2.70
2023-12-23T08:46:32.759Z,2.70
2023-12-23T08:49:05.828Z,2.20
2023-12-23T08:51:39.440Z,1.90
2023-12-23T08:54:11.179Z,3.20
2023-12-23T08:56:42.997Z,1.80
2023-12-23T08:59:14.827Z,4.60
2023-12-23T09:01:46.744Z,2.60
2023-12-23T09:04:19.262Z,3.60
2023-12-23T09:06:51.060Z,3.60
2023-12-23T09:09:22.937Z,2.90
2023-12-23T09:11:54.744Z,2.80
2023-12-23T09:14:26.717Z,2.90
2023-12-23T09:16:58.683Z,2.50
2023-12-23T09:19:30.527Z,2.10
2023-12-23T09:22:02.376Z,2.00
2023-12-23T09:24:34.255Z,3.50
2023-12-23T09:27:07.058Z,3.10
2023-12-23T09:29:38.904Z,2.40
2023-12-23T09:32:10.789Z,3.20
2023-12-23T09:34:42.581Z,4.50
2023-12-23T09:37:14.407Z,3.80
2023-12-23T09:39:46.184Z,4.50
2023-12-23T09:42:18.820Z,6.50
2023-12-23T09:47:21.945Z,7.00
2023-12-23T09:49:53.953Z,10.20
2023-12-23T09:52:26.049Z,5.30
2023-12-23T09:55:03.402Z,7.80
2023-12-23T09:57:37.441Z,10.50
2023-12-23T10:00:12.088Z,6.20
2023-12-23T10:02:43.892Z,5.40
2023-12-23T10:05:16.470Z,9.30
2023-12-23T10:07:48.363Z,8.10
2023-12-23T10:10:20.685Z,5.00
2023-12-23T10:12:53.323Z,5.80
2023-12-23T10:15:25.426Z,7.30
2023-12-23T10:17:58.307Z,8.10
2023-12-23T10:20:30.295Z,6.60
2023-12-23T10:23:02.138Z,9.00
2023-12-23T10:25:34.048Z,7.20
2023-12-23T10:28:08.602Z,6.50
2023-12-23T10:30:48.324Z,8.10
2023-12-23T10:33:23.787Z,9.80
2023-12-23T10:35:59.831Z,10.50
2023-12-23T10:38:32.911Z,8.10
2023-12-23T10:41:13.583Z,11.70
2023-12-23T10:43:46.191Z,7.70
2023-12-23T10:46:19.094Z,11.50
2023-12-23T10:48:52.203Z,8.50
2023-12-23T10:51:25.260Z,8.90
2023-12-23T10:53:59.263Z,8.20
2023-12-23T10:56:31.899Z,8.50
2023-12-23T10:59:04.336Z,7.30
2023-12-23T11:01:38.187Z,8.70
2023-12-23T11:04:10.254Z,7.80
2023-12-23T11:06:46.001Z,9.30
2023-12-23T11:09:19.563Z,9.50
2023-12-23T11:14:22.105Z,8.80
2023-12-23T11:16:57.425Z,7.00
2023-12-23T11:19:29.774Z,8.40
2023-12-23T11:22:24.608Z,8.70
2023-12-23T11:24:56.956Z,6.40
2023-12-23T11:27:36.356Z,8.30
2023-12-23T11:30:10.223Z,7.90
2023-12-23T11:32:45.197Z,10.50
2023-12-23T11:35:17.202Z,9.80
2023-12-23T11:37:57.087Z,9.70
2023-12-23T11:40:31.322Z,12.00
2023-12-23T11:43:04.008Z,9.40
2023-12-23T11:45:36.140Z,10.00
2023-12-23T11:48:09.621Z,10.90
2023-12-23T11:53:14.041Z,11.20
2023-12-23T11:55:46.779Z,9.30
2023-12-23T11:58:18.905Z,9.80
2023-12-23T12:00:55.382Z,8.40
2023-12-23T12:03:28.492Z,9.70
2023-12-23T12:06:01.606Z,7.80
2023-12-23T12:08:33.566Z,8.50
2023-12-23T12:11:05.627Z,5.80
2023-12-23T12:13:38.788Z,6.10
2023-12-23T12:16:10.780Z,3.70
2023-12-23T12:18:44.505Z,7.90
2023-12-23T12:21:16.534Z,5.70
2023-12-23T12:23:48.407Z,4.30
2023-12-23T12:26:21.224Z,6.80
2023-12-23T12:28:54.078Z,5.50
2023-12-23T12:31:26.013Z,5.10
2023-12-23T12:33:58.152Z,3.40
2023-12-23T12:36:30.306Z,4.40
2023-12-23T12:39:02.090Z,4.40
2023-12-23T12:41:38.408Z,3.90
2023-12-23T12:44:10.827Z,6.20
2023-12-23T12:46:42.579Z,3.80
2023-12-23T12:49:16.453Z,4.10
2023-12-23T12:51:48.379Z,6.20
2023-12-23T12:54:21.689Z,4.90
2023-12-23T12:56:54.029Z,6.10
2023-12-23T12:59:25.896Z,8.00
2023-12-23T13:01:57.752Z,5.30
2023-12-23T13:04:29.524Z,4.60
2023-12-23T13:07:01.270Z,6.20
2023-12-23T13:09:32.980Z,4.70
2023-12-23T13:12:05.595Z,4.90
2023-12-23T13:14:37.855Z,4.50
2023-12-23T13:17:09.771Z,3.60
2023-12-23T13:19:41.579Z,4.90
2023-12-23T13:22:13.385Z,5.80
2023-12-23T13:24:45.105Z,5.30
2023-12-23T13:27:18.644Z,5.00
2023-12-23T13:32:20.952Z,4.10
2023-12-23T13:34:52.957Z,4.90
2023-12-23T13:37:24.704Z,4.90
2023-12-23T13:39:56.450Z,4.90
2023-12-23T13:42:28.440Z,4.90
2023-12-23T13:45:01.562Z,5.70
2023-12-23T13:47:34.673Z,6.20
2023-12-23T13:50:08.676Z,10.40
2023-12-23T13:52:41.393Z,10.60
2023-12-23T13:55:13.478Z,14.00
2023-12-23T13:57:45.242Z,10.80
2023-12-23T14:00:18.570Z,9.40
2023-12-23T14:02:50.590Z,10.80
2023-12-23T14:05:22.963Z,14.00
2023-12-23T14:07:54.946Z,11.10
2023-12-23T14:10:26.734Z,11.60
2023-12-23T14:12:58.831Z,13.30
2023-12-23T14:15:30.592Z,12.00
2023-12-23T14:18:04.452Z,12.60
2023-12-23T14:20:36.343Z,15.00
2023-12-23T14:23:08.867Z,11.00
2023-12-23T14:25:40.705Z,18.30
2023-12-23T14:28:13.723Z,16.10
2023-12-23T14:30:46.606Z,14.10
2023-12-23T14:33:18.552Z,14.60
2023-12-23T14:35:50.595Z,11.10
2023-12-23T14:38:22.395Z,11.00
2023-12-23T14:40:54.453Z,11.60
2023-12-23T14:43:26.267Z,11.60
2023-12-23T14:45:58.156Z,10.00
2023-12-23T14:48:30.048Z,9.70
2023-12-23T14:51:02.183Z,9.00
2023-12-23T14:53:34.102Z,9.90
2023-12-23T14:56:06.278Z,13.00
2023-12-23T14:58:38.140Z,14.60
2023-12-23T15:01:10.304Z,11.60
2023-12-23T15:03:42.121Z,13.20
2023-12-23T15:06:14.018Z,12.10
2023-12-23T15:08:45.899Z,13.30
2023-12-23T15:11:17.701Z,11.80
2023-12-23T15:13:49.983Z,12.60
2023-12-23T15:16:21.781Z,12.00
2023-12-23T15:18:56.072Z,13.00
2023-12-23T15:21:28.947Z,11.40
2023-12-23T15:24:00.793Z,9.80
2023-12-23T15:26:33.118Z,9.90
2023-12-23T15:29:05.569Z,10.50
2023-12-23T15:31:37.390Z,9.10
2023-12-23T15:34:09.272Z,8.00
2023-12-23T15:36:41.103Z,7.30
2023-12-23T15:39:13.966Z,11.90
2023-12-23T15:41:45.765Z,9.10
2023-12-23T15:44:17.571Z,11.50
2023-12-23T15:46:49.498Z,12.70
2023-12-23T15:49:21.320Z,10.00
2023-12-23T15:51:53.103Z,11.80
2023-12-23T15:54:24.943Z,16.40
2023-12-23T15:56:57.697Z,12.60
2023-12-23T15:59:29.519Z,16.60
2023-12-23T16:02:04.042Z,22.60
2023-12-23T16:04:36.191Z,47.00
2023-12-23T16:07:08.191Z,29.60
2023-12-23T16:09:39.981Z,20.50
2023-12-23T16:12:11.968Z,19.20
2023-12-23T16:14:43.832Z,16.50
2023-12-23T16:17:15.622Z,18.70
2023-12-23T16:19:47.517Z,35.80
2023-12-23T16:22:19.305Z,24.90
2023-12-23T16:24:51.065Z,16.60
2023-12-23T16:27:22.918Z,13.40
2023-12-23T16:29:54.699Z,11.80
2023-12-23T16:32:26.639Z,9.80
2023-12-23T16:34:59.045Z,14.30
2023-12-23T16:37:30.975Z,29.00
2023-12-23T16:40:03.376Z,25.30
2023-12-23T16:42:37.610Z,29.50
2023-12-23T16:45:15.720Z,35.00
2023-12-23T16:47:47.675Z,19.90
2023-12-23T16:50:19.762Z,15.10
2023-12-23T16:52:51.814Z,22.30
2023-12-23T16:55:23.792Z,10.80
2023-12-23T16:57:56.235Z,11.00
2023-12-23T17:00:28.332Z,9.80
2023-12-23T17:03:00.073Z,10.80
2023-12-23T17:05:32.907Z,10.00
2023-12-23T17:08:04.888Z,16.20
2023-12-23T17:10:38.970Z,17.50
2023-12-23T17:13:10.771Z,26.40
2023-12-23T17:15:42.609Z,18.30
2023-12-23T17:18:14.475Z,25.30
2023-12-23T17:20:46.282Z,12.90
2023-12-23T17:23:18.182Z,13.10
2023-12-23T17:25:49.966Z,20.20
2023-12-23T17:28:21.928Z,12.60
2023-12-23T17:30:53.932Z,12.50
2023-12-23T17:33:25.837Z,12.70
2023-12-23T17:35:57.979Z,13.10
2023-12-23T17:38:29.816Z,8.60
2023-12-23T17:41:01.855Z,10.40
2023-12-23T17:43:33.716Z,7.80
2023-12-23T17:46:06.727Z,8.30
2023-12-23T17:48:38.574Z,9.20
2023-12-23T17:51:10.869Z,8.20
2023-12-23T17:53:42.729Z,10.00
2023-12-23T17:56:14.816Z,9.00
2023-12-23T17:58:46.632Z,7.60
2023-12-23T18:01:18.475Z,8.10
2023-12-23T18:03:50.452Z,7.00
2023-12-23T18:06:22.233Z,12.00
2023-12-23T18:08:54.080Z,9.00
2023-12-23T18:11:25.945Z,9.30
2023-12-23T18:13:57.819Z,11.90
2023-12-23T18:16:29.690Z,10.40
2023-12-23T18:19:01.495Z,8.40
2023-12-23T18:21:33.285Z,9.20
2023-12-23T18:24:05.404Z,12.30
2023-12-23T18:26:37.318Z,62.70
2023-12-23T18:29:09.194Z,32.10
2023-12-23T18:31:41.185Z,13.60
2023-12-23T18:34:13.154Z,14.70
2023-12-23T18:36:44.957Z,11.50
2023-12-23T18:39:16.799Z,9.20
2023-12-23T18:41:48.573Z,6.50
2023-12-23T18:44:22.080Z,8.80
2023-12-23T18:49:27.259Z,7.30
2023-12-23T18:51:59.015Z,7.90
2023-12-23T18:54:30.778Z,8.00
2023-12-23T18:57:05.221Z,8.80
2023-12-23T18:59:37.041Z,11.20
2023-12-23T19:02:10.594Z,9.50
2023-12-23T19:07:13.171Z,10.00
2023-12-23T19:09:45.513Z,13.40
2023-12-23T19:12:17.286Z,9.80
2023-12-23T19:14:49.345Z,9.50
2023-12-23T19:17:21.296Z,13.80
2023-12-23T19:19:53.148Z,10.10
2023-12-23T19:22:25.007Z,13.10
2023-12-23T19:24:56.714Z,15.10
2023-12-23T19:27:28.480Z,15.60
2023-12-23T19:30:00.288Z,14.10
2023-12-23T19:32:32.232Z,11.20
2023-12-23T19:35:04.250Z,14.60
2023-12-23T19:37:36.665Z,14.60
2023-12-23T19:40:11.201Z,29.90
2023-12-23T19:42:43.081Z,19.70
2023-12-23T19:45:15.456Z,33.10
2023-12-23T19:47:47.499Z,18.40
2023-12-23T19:50:20.301Z,16.30
2023-12-23T19:52:54.558Z,17.40
2023-12-23T19:55:26.661Z,14.60
2023-12-23T19:57:58.632Z,12.90
2023-12-23T20:00:30.597Z,17.20
2023-12-23T20:03:02.697Z,12.70
2023-12-23T20:05:36.974Z,13.40
2023-12-23T20:08:09.698Z,14.50
2023-12-23T20:10:41.935Z,10.20
2023-12-23T20:13:13.997Z,10.90
2023-12-23T20:15:46.865Z,11.80
2023-12-23T20:18:18.921Z,8.00
2023-12-23T20:20:50.927Z,9.00
2023-12-23T20:23:22.834Z,12.10
2023-12-23T20:25:54.901Z,12.30
2023-12-23T20:28:26.769Z,10.50
2023-12-23T20:30:58.597Z,9.90
2023-12-23T20:33:30.559Z,10.20
2023-12-23T20:36:04.345Z,10.20
2023-12-23T20:38:36.530Z,10.60
2023-12-23T20:41:08.671Z,11.50
2023-12-23T20:43:40.625Z,10.60
2023-12-23T20:46:14.106Z,14.00
2023-12-23T20:48:47.328Z,11.10
2023-12-23T20:51:19.520Z,11.40
2023-12-23T20:53:51.892Z,12.00
2023-12-23T20:56:25.994Z,8.70
2023-12-23T20:58:58.303Z,14.00
2023-12-23T21:01:30.115Z,11.80
2023-12-23T21:04:03.608Z,9.80
2023-12-23T21:06:35.813Z,8.60
2023-12-23T21:09:09.259Z,9.70
2023-12-23T21:11:41.028Z,8.60
2023-12-23T21:14:12.876Z,9.30
2023-12-23T21:16:44.989Z,10.00
2023-12-23T21:19:16.809Z,9.40
2023-12-23T21:21:50.643Z,10.30
2023-12-23T21:24:23.547Z,7.60
2023-12-23T21:26:55.322Z,8.00
2023-12-23T21:29:27.465Z,6.60
2023-12-23T21:31:59.363Z,8.40
2023-12-23T21:34:31.303Z,15.70
2023-12-23T21:37:03.158Z,13.20
2023-12-23T21:39:35.204Z,13.80
2023-12-23T21:42:07.513Z,11.70
2023-12-23T21:44:39.418Z,15.30
2023-12-23T21:47:12.378Z,14.40
2023-12-23T21:49:44.216Z,13.90
2023-12-23T21:52:16.427Z,12.60
2023-12-23T21:54:48.266Z,12.80
2023-12-23T21:57:20.827Z,11.20
2023-12-23T21:59:52.695Z,9.90
2023-12-23T22:02:24.709Z,12.10
2023-12-23T22:04:56.664Z,9.70
2023-12-23T22:07:28.528Z,11.10
2023-12-23T22:10:00.466Z,11.90
2023-12-23T22:12:32.232Z,11.90
2023-12-23T22:15:03.996Z,13.90
2023-12-23T22:17:35.943Z,12.10
2023-12-23T22:20:09.158Z,12.30
2023-12-23T22:22:40.974Z,9.90
2023-12-23T22:25:12.940Z,11.70
2023-12-23T22:27:44.785Z,13.00
2023-12-23T22:30:17.095Z,13.20
2023-12-23T22:32:49.146Z,11.40
2023-12-23T22:35:21.314Z,9.20
2023-12-23T22:37:53.261Z,12.20
2023-12-23T22:40:25.148Z,10.20
2023-12-23T22:42:56.922Z,11.20
2023-12-23T22:45:28.936Z,10.80
2023-12-23T22:48:02.180Z,11.00
2023-12-23T22:50:34.075Z,12.10
2023-12-23T22:53:06.115Z,10.90
2023-12-23T22:55:37.912Z,9.40
2023-12-23T22:58:10.145Z,9.50
2023-12-23T23:00:42.524Z,14.30
2023-12-23T23:03:14.442Z,9.60
2023-12-23T23:05:46.374Z,13.60
2023-12-23T23:08:18.236Z,9.20
2023-12-23T23:10:49.987Z,11.40
2023-12-23T23:13:21.732Z,11.90
2023-12-23T23:15:53.650Z,9.00
2023-12-23T23:18:25.825Z,10.70
2023-12-23T23:20:57.801Z,14.40
2023-12-23T23:23:30.280Z,11.00
2023-12-23T23:26:02.185Z,10.80
2023-12-23T23:28:34.177Z,11.60
2023-12-23T23:31:06.197Z,11.60
2023-12-23T23:33:38.001Z,11.90
2023-12-23T23:36:15.140Z,12.50
2023-12-23T23:38:46.977Z,14.30
2023-12-23T23:41:18.794Z,12.70
2023-12-23T23:43:50.606Z,12.40
2023-12-23T23:46:22.360Z,10.10
2023-12-23T23:48:54.308Z,9.50
2023-12-23T23:51:26.605Z,10.70
2023-12-23T23:53:58.350Z,13.70
2023-12-23T23:56:30.233Z,7.00
2023-12-23T23:59:02.069Z,7.40
